createdAt,value
2023-02-25T00:01:16.356Z,75.40
2023-02-25T00:02:36.950Z,75.00
2023-02-25T00:03:58.164Z,74.70
2023-02-25T00:05:19.344Z,74.70
2023-02-25T00:06:40.006Z,74.80
2023-02-25T00:08:00.720Z,74.30
2023-02-25T00:09:21.375Z,74.10
2023-02-25T00:10:42.140Z,73.50
2023-02-25T00:12:03.102Z,73.80
2023-02-25T00:13:23.984Z,73.50
2023-02-25T00:14:45.736Z,73.60
2023-02-25T00:16:08.144Z,73.70
2023-02-25T00:17:28.662Z,73.70
2023-02-25T00:18:53.835Z,74.00
2023-02-25T00:20:14.633Z,74.30
2023-02-25T00:21:35.072Z,74.20
2023-02-25T00:22:56.018Z,74.40
2023-02-25T00:24:17.244Z,74.50
2023-02-25T00:25:37.983Z,74.20
2023-02-25T00:26:58.720Z,74.10
2023-02-25T00:28:19.438Z,74.10
2023-02-25T00:29:40.229Z,74.40
2023-02-25T00:31:06.585Z,74.30
2023-02-25T00:32:26.967Z,75.40
2023-02-25T00:33:48.031Z,76.00
2023-02-25T00:35:09.254Z,76.60
2023-02-25T00:36:30.038Z,76.40
2023-02-25T00:37:51.322Z,75.50
2023-02-25T00:39:12.020Z,74.60
2023-02-25T00:40:32.832Z,73.70
2023-02-25T00:41:53.665Z,73.00
2023-02-25T00:43:14.359Z,72.80
2023-02-25T00:44:35.179Z,72.30
2023-02-25T00:45:55.882Z,70.90
2023-02-25T00:47:19.797Z,71.40
2023-02-25T00:48:41.028Z,71.20
2023-02-25T00:50:01.747Z,71.10
2023-02-25T00:51:23.952Z,71.10
2023-02-25T00:52:44.606Z,71.20
2023-02-25T00:54:05.732Z,71.50
2023-02-25T00:55:26.404Z,71.90
2023-02-25T00:56:47.398Z,73.00
2023-02-25T00:58:08.406Z,73.90
2023-02-25T00:59:29.359Z,74.20
2023-02-25T01:00:51.894Z,75.00
2023-02-25T01:02:12.676Z,75.30
2023-02-25T01:03:35.120Z,74.80
2023-02-25T01:04:56.008Z,74.80
2023-02-25T01:06:17.214Z,74.60
2023-02-25T01:07:37.790Z,74.30
2023-02-25T01:08:59.251Z,74.60
2023-02-25T01:10:19.973Z,74.80
2023-02-25T01:11:42.140Z,74.40
2023-02-25T01:13:02.632Z,74.50
2023-02-25T01:14:24.466Z,74.60
2023-02-25T01:15:45.032Z,74.60
2023-02-25T01:17:05.935Z,74.90
2023-02-25T01:18:26.748Z,75.40
2023-02-25T01:19:48.779Z,75.60
2023-02-25T01:21:15.675Z,75.40
2023-02-25T01:22:36.314Z,75.30
2023-02-25T01:23:59.526Z,75.00
2023-02-25T01:25:20.040Z,74.90
2023-02-25T01:26:42.095Z,74.80
2023-02-25T01:28:02.829Z,74.30
2023-02-25T01:29:24.931Z,74.10
2023-02-25T01:30:45.493Z,74.40
2023-02-25T01:32:09.005Z,74.40
2023-02-25T01:33:29.789Z,74.50
2023-02-25T01:34:51.629Z,74.60
2023-02-25T01:36:12.319Z,74.00
2023-02-25T01:37:33.197Z,74.10
2023-02-25T01:38:54.171Z,74.10
2023-02-25T01:40:15.927Z,73.80
2023-02-25T01:41:36.798Z,73.70
2023-02-25T01:42:57.807Z,74.00
2023-02-25T01:44:20.465Z,74.10
2023-02-25T01:45:43.212Z,74.10
2023-02-25T01:47:04.771Z,74.10
2023-02-25T01:48:28.146Z,73.90
2023-02-25T01:49:49.073Z,74.60
2023-02-25T01:51:11.499Z,74.60
2023-02-25T01:52:32.069Z,74.60
2023-02-25T01:53:52.970Z,75.00
2023-02-25T01:55:13.549Z,75.10
2023-02-25T01:56:34.832Z,74.70
2023-02-25T01:57:57.709Z,74.90
2023-02-25T01:59:19.550Z,74.90
2023-02-25T02:00:40.152Z,74.80
2023-02-25T02:02:01.594Z,75.10
2023-02-25T02:03:23.204Z,75.10
2023-02-25T02:04:45.310Z,74.80
2023-02-25T02:06:09.599Z,74.90
2023-02-25T02:07:31.866Z,74.90
2023-02-25T02:08:52.597Z,74.90
2023-02-25T02:10:13.470Z,74.60
2023-02-25T02:11:34.515Z,74.70
2023-02-25T02:12:55.667Z,75.30
2023-02-25T02:14:19.297Z,76.00
2023-02-25T02:15:43.685Z,76.20
2023-02-25T02:17:16.028Z,76.20
2023-02-25T02:18:39.782Z,76.30
2023-02-25T02:20:09.457Z,75.90
2023-02-25T02:21:46.559Z,75.60
2023-02-25T02:23:25.740Z,75.40
2023-02-25T02:25:17.709Z,75.00
2023-02-25T02:26:49.323Z,75.00
2023-02-25T02:29:01.727Z,74.50
2023-02-25T02:30:35.915Z,74.60
2023-02-25T02:32:17.927Z,74.10
2023-02-25T02:33:43.431Z,73.90
2023-02-25T02:35:11.569Z,73.80
2023-02-25T02:36:39.521Z,73.70
2023-02-25T02:38:07.344Z,73.50
2023-02-25T02:39:31.685Z,73.70
2023-02-25T02:40:59.949Z,73.40
2023-02-25T02:42:28.790Z,73.40
2023-02-25T02:43:53.751Z,73.40
2023-02-25T02:45:19.445Z,73.50
2023-02-25T02:46:44.718Z,73.70
2023-02-25T02:48:10.156Z,73.90
2023-02-25T02:49:36.100Z,74.10
2023-02-25T02:50:58.240Z,74.50
2023-02-25T02:52:21.177Z,74.60
2023-02-25T02:53:45.958Z,74.90
2023-02-25T02:55:10.427Z,75.20
2023-02-25T02:56:33.365Z,75.40
2023-02-25T02:57:58.589Z,75.60
2023-02-25T02:59:23.864Z,75.70
2023-02-25T03:00:46.605Z,76.10
2023-02-25T03:02:10.423Z,76.50
2023-02-25T03:03:35.845Z,75.80
2023-02-25T03:04:59.585Z,75.70
2023-02-25T03:06:23.405Z,75.60
2023-02-25T03:07:47.784Z,75.60
2023-02-25T03:09:10.689Z,75.80
2023-02-25T03:10:32.394Z,75.50
2023-02-25T03:11:53.286Z,75.10
2023-02-25T03:13:14.656Z,75.00
2023-02-25T03:14:36.417Z,74.90
2023-02-25T03:15:59.488Z,73.80
2023-02-25T03:17:22.534Z,73.90
2023-02-25T03:18:49.495Z,74.30
2023-02-25T03:20:13.740Z,74.50
2023-02-25T03:21:38.965Z,75.00
2023-02-25T03:23:01.478Z,75.20
2023-02-25T03:24:23.547Z,75.40
2023-02-25T03:25:46.976Z,74.80
2023-02-25T03:27:24.727Z,74.80
2023-02-25T03:28:45.750Z,74.30
2023-02-25T03:30:09.382Z,73.20
2023-02-25T03:31:33.212Z,73.50
2023-02-25T03:32:57.477Z,74.50
2023-02-25T03:34:22.111Z,75.50
2023-02-25T03:35:44.237Z,75.90
2023-02-25T03:37:08.643Z,76.00
2023-02-25T03:38:31.339Z,76.20
2023-02-25T03:39:55.418Z,76.20
2023-02-25T03:41:16.412Z,74.80
2023-02-25T03:42:39.373Z,74.20
2023-02-25T03:44:00.285Z,73.90
2023-02-25T03:45:21.982Z,73.60
2023-02-25T03:46:44.595Z,73.80
2023-02-25T03:48:06.353Z,73.90
2023-02-25T03:49:33.125Z,73.30
2023-02-25T03:50:58.286Z,73.50
2023-02-25T03:52:21.776Z,73.30
2023-02-25T03:53:42.919Z,73.20
2023-02-25T03:55:03.963Z,73.10
2023-02-25T03:56:24.757Z,72.80
2023-02-25T03:57:48.257Z,72.60
2023-02-25T03:59:08.968Z,72.70
2023-02-25T04:00:32.479Z,72.60
2023-02-25T04:01:53.797Z,72.60
2023-02-25T04:03:14.439Z,72.60
2023-02-25T04:04:36.963Z,72.80
2023-02-25T04:05:57.820Z,73.30
2023-02-25T04:07:18.522Z,73.20
2023-02-25T04:08:39.263Z,73.50
2023-02-25T04:09:59.893Z,73.80
2023-02-25T04:11:21.016Z,74.10
2023-02-25T04:12:41.796Z,74.20
2023-02-25T04:14:02.603Z,74.20
2023-02-25T04:15:23.473Z,73.50
2023-02-25T04:16:44.215Z,73.80
2023-02-25T04:18:05.706Z,73.70
2023-02-25T04:19:26.536Z,73.20
2023-02-25T04:20:48.699Z,73.20
2023-02-25T04:22:09.378Z,73.30
2023-02-25T04:23:30.012Z,73.20
2023-02-25T04:24:51.081Z,72.80
2023-02-25T04:26:11.758Z,73.10
2023-02-25T04:27:32.493Z,73.40
2023-02-25T04:28:53.679Z,73.20
2023-02-25T04:30:17.265Z,73.20
2023-02-25T04:31:38.159Z,73.60
2023-02-25T04:32:59.140Z,73.20
2023-02-25T04:34:20.119Z,72.30
2023-02-25T04:35:40.844Z,72.00
2023-02-25T04:37:03.026Z,71.90
2023-02-25T04:38:23.728Z,72.00
2023-02-25T04:39:44.587Z,72.30
2023-02-25T04:41:05.539Z,72.60
2023-02-25T04:42:26.073Z,72.70
2023-02-25T04:43:46.612Z,73.00
2023-02-25T04:45:09.389Z,73.50
2023-02-25T04:46:31.421Z,73.90
2023-02-25T04:47:52.988Z,74.30
2023-02-25T04:49:13.315Z,74.30
2023-02-25T04:50:34.129Z,74.30
2023-02-25T04:51:54.617Z,74.10
2023-02-25T04:53:16.976Z,73.60
2023-02-25T04:54:37.642Z,73.70
2023-02-25T04:56:02.428Z,73.50
2023-02-25T04:57:23.056Z,73.20
2023-02-25T04:58:44.274Z,73.30
2023-02-25T05:00:06.110Z,73.50
2023-02-25T05:01:26.261Z,73.50
2023-02-25T05:02:47.541Z,73.70
2023-02-25T05:04:08.358Z,74.00
2023-02-25T05:05:29.105Z,74.10
2023-02-25T05:06:49.930Z,74.20
2023-02-25T05:08:10.492Z,74.40
2023-02-25T05:09:33.076Z,74.50
2023-02-25T05:10:54.007Z,74.40
2023-02-25T05:12:14.617Z,74.40
2023-02-25T05:13:34.951Z,74.60
2023-02-25T05:14:55.482Z,74.60
2023-02-25T05:16:16.946Z,74.60
2023-02-25T05:17:37.447Z,74.40
2023-02-25T05:18:58.289Z,74.30
2023-02-25T05:20:19.290Z,74.10
2023-02-25T05:21:40.367Z,73.60
2023-02-25T05:23:00.956Z,73.50
2023-02-25T05:24:21.950Z,73.60
2023-02-25T05:25:44.556Z,73.20
2023-02-25T05:27:05.339Z,72.90
2023-02-25T05:28:26.789Z,73.00
2023-02-25T05:29:47.550Z,73.00
2023-02-25T05:31:10.010Z,73.00
2023-02-25T05:32:30.904Z,72.90
2023-02-25T05:33:52.166Z,72.80
2023-02-25T05:35:13.384Z,72.70
2023-02-25T05:36:34.032Z,72.70
2023-02-25T05:37:54.829Z,72.80
2023-02-25T05:39:15.484Z,72.90
2023-02-25T05:40:36.290Z,73.00
2023-02-25T05:41:58.743Z,73.00
2023-02-25T05:43:19.438Z,73.30
2023-02-25T05:44:40.201Z,73.30
2023-02-25T05:46:01.233Z,73.30
2023-02-25T05:47:21.733Z,73.40
2023-02-25T05:48:43.922Z,73.70
2023-02-25T05:50:05.461Z,73.80
2023-02-25T05:51:26.418Z,74.00
2023-02-25T05:52:46.919Z,74.20
2023-02-25T05:54:07.853Z,74.20
2023-02-25T05:55:28.451Z,74.30
2023-02-25T05:56:51.526Z,74.30
2023-02-25T05:58:13.756Z,74.40
2023-02-25T05:59:34.436Z,74.20
2023-02-25T06:00:55.502Z,74.30
2023-02-25T06:02:16.062Z,74.40
2023-02-25T06:03:37.040Z,73.90
2023-02-25T06:04:57.553Z,73.90
2023-02-25T06:06:19.623Z,74.00
2023-02-25T06:07:40.272Z,75.20
2023-02-25T06:09:00.998Z,75.80
2023-02-25T06:10:21.661Z,75.60
2023-02-25T06:11:42.759Z,75.40
2023-02-25T06:13:03.475Z,75.20
2023-02-25T06:14:25.699Z,75.30
2023-02-25T06:15:46.942Z,75.50
2023-02-25T06:17:07.648Z,75.00
2023-02-25T06:18:28.448Z,74.80
2023-02-25T06:19:49.091Z,75.00
2023-02-25T06:21:11.593Z,75.00
2023-02-25T06:22:32.404Z,75.20
2023-02-25T06:23:53.394Z,75.20
2023-02-25T06:25:14.082Z,75.40
2023-02-25T06:26:34.847Z,75.40
2023-02-25T06:27:55.505Z,75.90
2023-02-25T06:29:16.303Z,76.10
2023-02-25T06:30:41.111Z,76.10
2023-02-25T06:32:01.800Z,76.10
2023-02-25T06:33:22.800Z,76.20
2023-02-25T06:34:43.662Z,76.10
2023-02-25T06:36:05.334Z,76.20
2023-02-25T06:37:25.733Z,76.20
2023-02-25T06:38:46.526Z,76.10
2023-02-25T06:40:08.414Z,75.80
2023-02-25T06:41:28.924Z,75.80
2023-02-25T06:42:49.930Z,75.10
2023-02-25T06:44:10.520Z,74.90
2023-02-25T06:45:31.206Z,75.00
2023-02-25T06:46:53.745Z,74.50
2023-02-25T06:48:14.544Z,74.40
2023-02-25T06:49:35.123Z,74.00
2023-02-25T06:50:55.856Z,73.70
2023-02-25T06:52:16.835Z,73.00
2023-02-25T06:53:37.484Z,72.90
2023-02-25T06:54:58.086Z,72.80
2023-02-25T06:56:18.825Z,73.00
2023-02-25T06:57:39.664Z,73.70
2023-02-25T06:59:00.301Z,74.70
2023-02-25T07:00:21.526Z,75.20
2023-02-25T07:01:42.438Z,75.70
2023-02-25T07:03:04.397Z,76.20
2023-02-25T07:04:25.164Z,77.00
2023-02-25T07:05:46.052Z,77.40
2023-02-25T07:07:07.339Z,77.60
2023-02-25T07:08:27.960Z,78.00
2023-02-25T07:09:48.768Z,78.80
2023-02-25T07:11:27.145Z,79.50
2023-02-25T07:12:48.067Z,80.60
2023-02-25T07:14:09.635Z,81.40
2023-02-25T07:15:30.241Z,81.10
2023-02-25T07:16:51.212Z,81.30
2023-02-25T07:18:13.235Z,81.90
2023-02-25T07:19:33.851Z,80.80
2023-02-25T07:20:54.570Z,79.90
2023-02-25T07:22:16.697Z,80.00
2023-02-25T07:23:37.405Z,79.70
2023-02-25T07:24:57.838Z,80.10
2023-02-25T07:26:18.431Z,79.90
2023-02-25T07:27:43.601Z,79.70
2023-02-25T07:29:06.167Z,79.50
2023-02-25T07:30:26.567Z,79.50
2023-02-25T07:31:47.503Z,79.80
2023-02-25T07:33:08.438Z,78.80
2023-02-25T07:34:30.508Z,78.50
2023-02-25T07:35:54.476Z,78.50
2023-02-25T07:37:14.718Z,78.30
2023-02-25T07:38:35.572Z,78.00
2023-02-25T07:39:56.304Z,78.00
2023-02-25T07:41:19.172Z,78.10
2023-02-25T07:42:40.552Z,78.10
2023-02-25T07:44:00.936Z,78.20
2023-02-25T07:45:21.693Z,78.10
2023-02-25T07:46:42.419Z,78.10
2023-02-25T07:48:02.955Z,78.60
2023-02-25T07:49:23.567Z,78.60
2023-02-25T07:50:45.654Z,78.80
2023-02-25T07:52:06.350Z,78.60
2023-02-25T07:53:27.055Z,78.50
2023-02-25T07:54:47.504Z,78.40
2023-02-25T07:56:08.719Z,78.20
2023-02-25T07:57:29.218Z,77.90
2023-02-25T07:58:49.703Z,77.90
2023-02-25T08:00:11.553Z,77.50
2023-02-25T08:01:33.520Z,77.30
2023-02-25T08:02:54.230Z,77.60
2023-02-25T08:04:14.872Z,78.00
2023-02-25T08:05:36.225Z,76.50
2023-02-25T08:06:58.147Z,76.70
2023-02-25T08:08:18.583Z,76.80
2023-02-25T08:09:39.550Z,76.40
2023-02-25T08:11:05.165Z,76.70
2023-02-25T08:12:26.127Z,76.40
2023-02-25T08:13:46.899Z,75.80
2023-02-25T08:15:08.336Z,75.20
2023-02-25T08:16:28.923Z,74.80
2023-02-25T08:17:49.465Z,74.50
2023-02-25T08:19:10.430Z,73.90
2023-02-25T08:20:31.540Z,73.50
2023-02-25T08:21:52.143Z,73.20
2023-02-25T08:23:14.168Z,73.20
2023-02-25T08:24:34.740Z,73.40
2023-02-25T08:25:55.787Z,73.00
2023-02-25T08:27:16.529Z,73.30
2023-02-25T08:28:37.428Z,73.60
2023-02-25T08:29:58.206Z,73.50
2023-02-25T08:31:20.046Z,73.00
2023-02-25T08:32:40.879Z,72.10
2023-02-25T08:34:01.903Z,72.10
2023-02-25T08:35:23.117Z,71.40
2023-02-25T08:36:44.003Z,71.20
2023-02-25T08:38:04.533Z,71.90
2023-02-25T08:39:26.556Z,72.20
2023-02-25T08:40:47.011Z,72.00
2023-02-25T08:42:07.609Z,71.70
2023-02-25T08:43:28.393Z,71.90
2023-02-25T08:44:49.296Z,71.50
2023-02-25T08:46:09.892Z,71.50
2023-02-25T08:47:30.312Z,71.80
2023-02-25T08:48:52.131Z,71.30
2023-02-25T08:50:12.504Z,71.20
2023-02-25T08:51:33.862Z,71.90
2023-02-25T08:52:54.591Z,71.90
2023-02-25T08:54:16.025Z,71.70
2023-02-25T08:55:37.802Z,72.10
2023-02-25T08:56:58.551Z,72.20
2023-02-25T08:58:19.181Z,72.10
2023-02-25T08:59:39.635Z,72.00
2023-02-25T09:01:00.915Z,71.50
2023-02-25T09:02:21.635Z,70.50
2023-02-25T09:03:43.275Z,68.80
2023-02-25T09:05:04.504Z,69.20
2023-02-25T09:06:26.758Z,69.70
2023-02-25T09:07:47.175Z,70.00
2023-02-25T09:09:07.899Z,70.10
2023-02-25T09:10:34.031Z,69.80
2023-02-25T09:12:01.411Z,69.70
2023-02-25T09:13:21.851Z,69.70
2023-02-25T09:14:42.771Z,70.00
2023-02-25T09:16:04.019Z,70.10
2023-02-25T09:17:24.733Z,70.70
2023-02-25T09:18:45.421Z,70.90
2023-02-25T09:20:07.464Z,70.70
2023-02-25T09:21:28.236Z,70.50
2023-02-25T09:22:48.912Z,70.50
2023-02-25T09:24:10.388Z,70.70
2023-02-25T09:25:30.813Z,70.70
2023-02-25T09:26:51.189Z,71.40
2023-02-25T09:28:13.321Z,74.10
2023-02-25T09:29:34.436Z,76.20
2023-02-25T09:30:56.382Z,77.50
2023-02-25T09:32:18.766Z,77.60
2023-02-25T09:33:39.608Z,78.40
2023-02-25T09:35:01.425Z,79.10
2023-02-25T09:36:22.406Z,79.30
2023-02-25T09:37:43.009Z,79.40
2023-02-25T09:39:03.864Z,79.70
2023-02-25T09:40:24.987Z,80.80
2023-02-25T09:41:50.121Z,81.50
2023-02-25T09:43:20.319Z,82.30
2023-02-25T09:44:43.613Z,82.00
2023-02-25T09:46:07.195Z,82.90
2023-02-25T09:47:31.204Z,83.40
2023-02-25T09:48:55.605Z,83.20
2023-02-25T09:50:18.934Z,83.40
2023-02-25T09:51:43.442Z,83.10
2023-02-25T09:53:09.043Z,83.40
2023-02-25T09:54:32.692Z,83.90
2023-02-25T09:55:53.868Z,84.60
2023-02-25T09:57:17.707Z,83.60
2023-02-25T09:58:42.629Z,83.40
2023-02-25T10:00:04.676Z,83.50
2023-02-25T10:01:30.087Z,82.20
2023-02-25T10:02:54.720Z,82.10
2023-02-25T10:04:22.680Z,81.10
2023-02-25T10:05:47.062Z,81.90
2023-02-25T10:07:13.205Z,82.50
2023-02-25T10:08:37.971Z,81.90
2023-02-25T10:10:02.072Z,80.20
2023-02-25T10:11:29.688Z,80.20
2023-02-25T10:12:54.189Z,80.70
2023-02-25T10:14:28.223Z,80.30
2023-02-25T10:15:54.949Z,79.50
2023-02-25T10:17:22.833Z,79.60
2023-02-25T10:18:52.990Z,80.00
2023-02-25T10:20:39.655Z,79.80
2023-02-25T10:22:19.551Z,79.00
2023-02-25T10:23:50.810Z,77.90
2023-02-25T10:25:14.936Z,78.00
2023-02-25T10:26:37.884Z,78.60
2023-02-25T10:28:00.616Z,77.80
2023-02-25T10:29:26.581Z,77.30
2023-02-25T10:30:50.419Z,76.60
2023-02-25T10:32:18.363Z,76.90
2023-02-25T10:33:40.765Z,76.80
2023-02-25T10:35:05.809Z,76.40
2023-02-25T10:36:30.821Z,76.60
2023-02-25T10:37:51.706Z,76.10
2023-02-25T10:39:12.127Z,75.20
2023-02-25T10:40:32.774Z,76.30
2023-02-25T10:41:53.712Z,75.80
2023-02-25T10:43:20.592Z,75.10
2023-02-25T10:44:42.659Z,75.50
2023-02-25T10:46:12.636Z,75.10
2023-02-25T10:47:35.821Z,75.10
2023-02-25T10:48:58.502Z,73.30
2023-02-25T10:50:38.945Z,72.80
2023-02-25T10:52:06.593Z,72.40
2023-02-25T10:53:27.223Z,72.60
2023-02-25T10:54:49.710Z,74.50
2023-02-25T10:56:10.275Z,74.50
2023-02-25T10:57:41.261Z,72.60
2023-02-25T10:59:04.442Z,72.80
2023-02-25T11:00:28.229Z,73.80
2023-02-25T11:01:49.355Z,72.30
2023-02-25T11:03:22.375Z,72.50
2023-02-25T11:04:43.261Z,72.60
2023-02-25T11:06:13.366Z,72.00
2023-02-25T11:07:35.633Z,72.00
2023-02-25T11:08:57.973Z,72.90
2023-02-25T11:10:20.817Z,73.80
2023-02-25T11:11:53.541Z,72.90
2023-02-25T11:13:28.380Z,73.70
2023-02-25T11:14:48.929Z,73.20
2023-02-25T11:16:12.181Z,72.40
2023-02-25T11:17:32.536Z,74.10
2023-02-25T11:18:55.588Z,73.90
2023-02-25T11:20:22.830Z,74.30
2023-02-25T11:21:43.762Z,72.20
2023-02-25T11:23:04.575Z,72.10
2023-02-25T11:24:30.285Z,71.90
2023-02-25T11:25:51.274Z,72.00
2023-02-25T11:27:25.872Z,71.50
2023-02-25T11:28:48.429Z,70.60
2023-02-25T11:30:18.835Z,69.80
2023-02-25T11:31:42.478Z,68.80
2023-02-25T11:33:06.357Z,70.00
2023-02-25T11:34:29.610Z,69.50
2023-02-25T11:35:55.671Z,70.10
2023-02-25T11:37:36.344Z,68.40
2023-02-25T11:39:19.795Z,68.10
2023-02-25T11:40:42.663Z,69.00
2023-02-25T11:42:22.053Z,68.20
2023-02-25T11:43:42.755Z,68.00
2023-02-25T11:45:04.496Z,67.30
2023-02-25T11:46:26.429Z,66.10
2023-02-25T11:47:48.658Z,67.00
2023-02-25T11:49:15.252Z,68.30
2023-02-25T11:50:45.547Z,67.70
2023-02-25T11:52:11.714Z,68.50
2023-02-25T11:53:49.874Z,69.90
2023-02-25T11:55:22.849Z,70.90
2023-02-25T11:56:46.649Z,71.80
2023-02-25T11:58:14.003Z,71.20
2023-02-25T11:59:36.847Z,70.10
2023-02-25T12:01:00.210Z,69.50
2023-02-25T12:02:38.272Z,70.40
2023-02-25T12:04:18.618Z,70.80
2023-02-25T12:05:52.936Z,71.90
2023-02-25T12:08:12.052Z,72.70
2023-02-25T12:10:00.665Z,71.70
2023-02-25T12:11:47.697Z,72.20
2023-02-25T12:13:43.174Z,72.70
2023-02-25T12:15:24.653Z,71.40
2023-02-25T12:17:11.655Z,71.60
2023-02-25T12:19:04.988Z,70.40
2023-02-25T12:20:58.439Z,71.00
2023-02-25T12:22:51.468Z,70.50
2023-02-25T12:24:51.811Z,68.40
2023-02-25T12:26:15.214Z,69.70
2023-02-25T12:28:03.399Z,68.70
2023-02-25T12:29:37.338Z,69.00
2023-02-25T12:31:06.709Z,67.30
2023-02-25T12:32:45.670Z,67.10
2023-02-25T12:34:21.665Z,67.20
2023-02-25T12:35:57.888Z,67.60
2023-02-25T12:37:46.546Z,66.50
2023-02-25T12:39:29.028Z,64.80
2023-02-25T12:41:02.222Z,64.60
2023-02-25T12:42:34.253Z,65.60
2023-02-25T12:44:03.526Z,64.90
2023-02-25T12:45:51.737Z,65.90
2023-02-25T12:47:24.337Z,66.00
2023-02-25T12:49:06.318Z,65.20
2023-02-25T12:51:01.204Z,65.10
2023-02-25T12:52:34.504Z,65.80
2023-02-25T12:54:00.168Z,66.60
2023-02-25T12:55:42.869Z,66.10
2023-02-25T12:57:18.164Z,65.70
2023-02-25T12:58:47.524Z,66.70
2023-02-25T13:00:25.520Z,67.50
2023-02-25T13:01:54.544Z,67.40
2023-02-25T13:03:27.415Z,66.20
2023-02-25T13:05:14.255Z,66.40
2023-02-25T13:06:48.775Z,66.00
2023-02-25T13:08:27.966Z,65.90
2023-02-25T13:10:03.426Z,66.00
2023-02-25T13:11:31.307Z,64.90
2023-02-25T13:13:00.814Z,63.70
2023-02-25T13:14:33.647Z,65.50
2023-02-25T13:16:04.094Z,65.10
2023-02-25T13:17:31.093Z,64.00
2023-02-25T13:19:01.516Z,64.00
2023-02-25T13:20:47.839Z,61.70
2023-02-25T13:22:18.129Z,59.50
2023-02-25T13:23:49.197Z,59.50
2023-02-25T13:25:14.290Z,59.10
2023-02-25T13:27:04.708Z,59.30
2023-02-25T13:28:40.310Z,58.90
2023-02-25T13:30:27.030Z,58.10
2023-02-25T13:31:51.937Z,58.30
2023-02-25T13:33:24.213Z,56.70
2023-02-25T13:34:48.677Z,57.50
2023-02-25T13:36:32.422Z,55.80
2023-02-25T13:38:00.457Z,53.70
2023-02-25T13:39:48.874Z,52.60
2023-02-25T13:41:33.004Z,53.70
2023-02-25T13:43:29.746Z,52.40
2023-02-25T13:45:25.721Z,53.40
2023-02-25T13:47:15.857Z,53.60
2023-02-25T13:48:58.376Z,54.10
2023-02-25T13:50:45.819Z,52.70
2023-02-25T13:52:26.252Z,52.70
2023-02-25T13:54:03.403Z,50.00
2023-02-25T13:55:34.695Z,51.40
2023-02-25T13:57:21.028Z,51.80
2023-02-25T13:59:06.114Z,52.90
2023-02-25T14:00:46.226Z,53.60
2023-02-25T14:02:34.490Z,55.20
2023-02-25T14:04:36.828Z,53.10
2023-02-25T14:06:03.307Z,52.90
2023-02-25T14:07:42.983Z,54.00
2023-02-25T14:09:16.313Z,52.70
2023-02-25T14:10:55.029Z,53.10
2023-02-25T14:12:26.389Z,52.50
2023-02-25T14:14:06.627Z,53.60
2023-02-25T14:15:43.211Z,54.60
2023-02-25T14:17:15.671Z,55.80
2023-02-25T14:18:45.213Z,54.20
2023-02-25T14:20:18.107Z,53.20
2023-02-25T14:22:00.424Z,54.20
2023-02-25T14:23:25.716Z,51.80
2023-02-25T14:24:50.713Z,51.00
2023-02-25T14:26:23.733Z,52.00
2023-02-25T14:27:51.233Z,52.60
2023-02-25T14:29:20.348Z,54.50
2023-02-25T14:30:49.938Z,54.20
2023-02-25T14:32:24.819Z,54.10
2023-02-25T14:34:12.822Z,54.20
2023-02-25T14:35:51.125Z,54.50
2023-02-25T14:37:21.410Z,52.60
2023-02-25T14:39:01.166Z,51.40
2023-02-25T14:40:28.835Z,51.90
2023-02-25T14:42:01.719Z,52.20
2023-02-25T14:43:29.976Z,53.80
2023-02-25T14:44:55.866Z,54.10
2023-02-25T14:46:26.509Z,55.50
2023-02-25T14:47:54.591Z,54.70
2023-02-25T14:49:20.478Z,53.50
2023-02-25T14:50:45.300Z,54.00
2023-02-25T14:52:26.729Z,51.80
2023-02-25T14:54:13.413Z,52.70
2023-02-25T14:55:58.520Z,51.40
2023-02-25T14:57:46.211Z,51.20
2023-02-25T14:59:39.082Z,51.30
2023-02-25T15:01:32.320Z,51.40
2023-02-25T15:03:08.993Z,50.20
2023-02-25T15:04:48.981Z,51.20
2023-02-25T15:06:19.851Z,50.90
2023-02-25T15:08:11.075Z,51.20
2023-02-25T15:10:03.129Z,52.70
2023-02-25T15:11:49.357Z,52.20
2023-02-25T15:13:24.870Z,53.20
2023-02-25T15:15:23.748Z,51.60
2023-02-25T15:17:14.043Z,51.50
2023-02-25T15:18:52.694Z,51.20
2023-02-25T15:20:40.851Z,52.10
2023-02-25T15:22:17.868Z,51.40
2023-02-25T15:23:48.974Z,51.70
2023-02-25T15:25:45.141Z,53.20
2023-02-25T15:27:40.731Z,51.90
2023-02-25T15:29:02.981Z,50.60
2023-02-25T15:30:25.928Z,51.20
2023-02-25T15:32:10.939Z,50.80
2023-02-25T15:33:35.256Z,49.70
2023-02-25T15:34:57.636Z,49.90
2023-02-25T15:36:24.574Z,50.60
2023-02-25T15:38:03.646Z,50.30
2023-02-25T15:39:47.021Z,49.90
2023-02-25T15:41:37.101Z,50.40
2023-02-25T15:42:58.726Z,51.20
2023-02-25T15:44:36.526Z,51.30
2023-02-25T15:46:32.400Z,50.40
2023-02-25T15:48:39.168Z,50.60
2023-02-25T15:50:00.306Z,50.00
2023-02-25T15:51:39.440Z,49.20
2023-02-25T15:53:00.518Z,49.80
2023-02-25T15:54:46.471Z,49.90
2023-02-25T15:56:30.748Z,50.40
2023-02-25T15:57:51.412Z,49.70
2023-02-25T15:59:11.746Z,50.20
2023-02-25T16:00:52.806Z,51.20
2023-02-25T16:02:43.466Z,50.80
2023-02-25T16:04:27.956Z,51.60
2023-02-25T16:05:48.687Z,51.80
2023-02-25T16:07:13.502Z,50.20
2023-02-25T16:08:37.766Z,49.00
2023-02-25T16:10:01.016Z,48.40
2023-02-25T16:11:26.656Z,47.70
2023-02-25T16:12:50.755Z,47.40
2023-02-25T16:14:15.592Z,48.50
2023-02-25T16:15:39.515Z,47.60
2023-02-25T16:17:05.448Z,47.50
2023-02-25T16:18:29.311Z,48.70
2023-02-25T16:19:53.832Z,47.70
2023-02-25T16:21:20.424Z,48.80
2023-02-25T16:22:44.791Z,49.30
2023-02-25T16:24:08.294Z,49.10
2023-02-25T16:25:36.451Z,49.30
2023-02-25T16:26:59.137Z,50.10
2023-02-25T16:28:25.420Z,49.60
2023-02-25T16:29:53.761Z,50.30
2023-02-25T16:31:18.168Z,49.90
2023-02-25T16:32:46.275Z,48.80
2023-02-25T16:34:11.237Z,49.00
2023-02-25T16:35:34.852Z,48.40
2023-02-25T16:37:05.568Z,49.90
2023-02-25T16:38:32.944Z,48.30
2023-02-25T16:39:53.842Z,49.10
2023-02-25T16:41:15.299Z,48.30
2023-02-25T16:42:35.649Z,48.60
2023-02-25T16:43:56.714Z,49.60
2023-02-25T16:45:25.265Z,50.50
2023-02-25T16:46:49.586Z,50.10
2023-02-25T16:48:16.143Z,50.60
2023-02-25T16:49:39.262Z,50.90
2023-02-25T16:51:08.541Z,51.00
2023-02-25T16:52:31.380Z,51.80
2023-02-25T16:53:55.370Z,53.30
2023-02-25T16:55:19.287Z,53.10
2023-02-25T16:56:41.534Z,53.10
2023-02-25T16:58:07.067Z,53.60
2023-02-25T16:59:31.161Z,53.00
2023-02-25T17:00:53.384Z,53.80
2023-02-25T17:02:24.797Z,53.90
2023-02-25T17:03:47.084Z,54.70
2023-02-25T17:05:23.001Z,54.70
2023-02-25T17:06:43.723Z,54.00
2023-02-25T17:08:06.229Z,54.30
2023-02-25T17:09:26.919Z,55.00
2023-02-25T17:10:49.935Z,55.90
2023-02-25T17:12:13.171Z,55.80
2023-02-25T17:13:35.964Z,55.80
2023-02-25T17:14:58.248Z,55.70
2023-02-25T17:16:21.881Z,55.80
2023-02-25T17:17:43.529Z,56.00
2023-02-25T17:19:07.223Z,56.60
2023-02-25T17:20:27.864Z,56.20
2023-02-25T17:21:51.924Z,56.50
2023-02-25T17:23:14.061Z,56.50
2023-02-25T17:24:34.639Z,56.90
2023-02-25T17:25:55.819Z,56.70
2023-02-25T17:27:16.897Z,57.20
2023-02-25T17:28:37.630Z,57.10
2023-02-25T17:29:58.444Z,57.10
2023-02-25T17:31:20.737Z,56.80
2023-02-25T17:32:41.509Z,56.70
2023-02-25T17:34:10.348Z,58.70
2023-02-25T17:35:31.719Z,58.20
2023-02-25T17:36:52.436Z,57.30
2023-02-25T17:38:16.000Z,57.20
2023-02-25T17:39:36.677Z,59.00
2023-02-25T17:40:57.629Z,59.50
2023-02-25T17:42:33.060Z,58.80
2023-02-25T17:43:53.953Z,59.30
2023-02-25T17:45:42.170Z,59.20
2023-02-25T17:47:02.829Z,59.40
2023-02-25T17:48:25.134Z,59.80
2023-02-25T17:49:47.581Z,59.80
2023-02-25T17:51:08.583Z,59.70
2023-02-25T17:52:31.209Z,59.10
2023-02-25T17:53:56.132Z,59.60
2023-02-25T17:55:23.491Z,59.60
2023-02-25T17:56:44.787Z,59.70
2023-02-25T17:58:05.419Z,59.90
2023-02-25T17:59:36.110Z,60.30
2023-02-25T18:00:59.531Z,59.90
2023-02-25T18:02:32.352Z,61.20
2023-02-25T18:03:53.527Z,60.20
2023-02-25T18:05:28.341Z,60.50
2023-02-25T18:06:48.808Z,60.10
2023-02-25T18:08:16.131Z,60.40
2023-02-25T18:09:39.761Z,60.50
2023-02-25T18:11:03.026Z,60.70
2023-02-25T18:12:26.408Z,60.80
2023-02-25T18:13:47.349Z,61.50
2023-02-25T18:15:16.084Z,61.70
2023-02-25T18:16:39.280Z,61.80
2023-02-25T18:18:01.262Z,61.30
2023-02-25T18:19:36.610Z,61.60
2023-02-25T18:20:58.643Z,61.20
2023-02-25T18:22:33.928Z,62.20
2023-02-25T18:23:54.637Z,62.00
2023-02-25T18:25:29.829Z,62.00
2023-02-25T18:27:21.349Z,62.90
2023-02-25T18:28:41.670Z,62.60
2023-02-25T18:30:15.551Z,63.60